Terminal Aerodrome Forecast
Issued by NWS

Home | Current Version | Previous Version | Text Only | Print | Product List | Glossary On
Versions: 1 2 3 4 5 6 7 8 9 10 11 12 13 14 15 16 17 18 19 20 21 22 23 24 25 26 27 28 29 30 31 32 33 34 35
000
FTUS43 KGLD 280344 AAA
TAFMCK
TAF AMD
KMCK 280344Z 2804/2824 09006KT P6SM VCTS BKN040CB
      TEMPO 2804/2808 VRB20G40KT 1SM TSRA BKN030CB
     FM280800 VRB06KT 6SM BR VCTS SCT015 BKN040CB
     FM281000 03006KT 3SM BR OVC015
      TEMPO 2810/2814 1SM BR OVC008
     FM281700 36008KT P6SM BKN025=

USA.gov is the U.S. government's official web portal to all federal, state and local government web resources and services.